| time (UTC) | temp F | wind direction | speed MPH | gust MPH | rain 1hr in | rain 24hr in | rain mn in | humidity % | barometer mb |
| 20260508224533 | 73 | 40 | 3.0 | 0.0 | 0.00 | 0.00 | 0.00 | 38 | 999.1 |
| 20260508223040 | 72 | 31 | 3.0 | 0.0 | 0.00 | 0.00 | 0.00 | 39 | 999.5 |
| 20260508221535 | 73 | 45 | 2.0 | 0.0 | 0.00 | 0.00 | 0.00 | 37 | 999.2 |
| 20260508220037 | 74 | 293 | 4.0 | 0.0 | 0.00 | 0.00 | 0.00 | 37 | 998.5 |
| 20260508214530 | 72 | 121 | 2.0 | 0.0 | 0.00 | 0.00 | 0.00 | 37 | 999.1 |
| 20260508213030 | 72 | 347 | 4.0 | 0.0 | 0.00 | 0.00 | 0.00 | 39 | 999.3 |
| 20260508211537 | 72 | 52 | 3.0 | 0.0 | 0.00 | 0.00 | 0.00 | 37 | 999.4 |
| 20260508210029 | 70 | 51 | 3.0 | 0.0 | 0.00 | 0.00 | 0.00 | 41 | 999.8 |
| 20260508204529 | 74 | 44 | 4.0 | 0.0 | 0.00 | 0.00 | 0.00 | 37 | 999.4 |
| 20260508203028 | 74 | 24 | 4.0 | 0.0 | 0.00 | 0.00 | 0.00 | 37 | 999.7 |
| 20260508201522 | 73 | 347 | 4.0 | 0.0 | 0.00 | 0.00 | 0.00 | 39 | 1000.0 |
| 20260508200020 | 69 | 19 | 4.0 | 0.0 | 0.00 | 0.00 | 0.00 | 41 | 1000.7 |
| 20260508194519 | 68 | 85 | 3.0 | 0.0 | 0.00 | 0.00 | 0.00 | 44 | 1000.9 |
| 20260508193019 | 68 | 55 | 5.0 | 0.0 | 0.00 | 0.00 | 0.00 | 43 | 1001.0 |
| 20260508191533 | 70 | 38 | 4.0 | 0.0 | 0.00 | 0.00 | 0.00 | 42 | 1000.8 |
| 20260508190027 | 69 | 84 | 5.0 | 0.0 | 0.00 | 0.00 | 0.00 | 43 | 1000.8 |
| 20260508184523 | 70 | 72 | 4.0 | 0.0 | 0.00 | 0.00 | 0.00 | 41 | 1000.7 |
| 20260508183017 | 70 | 65 | 4.0 | 0.0 | 0.00 | 0.00 | 0.00 | 41 | 1000.8 |
| 20260508181513 | 68 | 31 | 4.0 | 0.0 | 0.00 | 0.00 | 0.00 | 43 | 1001.3 |
| 20260508180012 | 67 | 54 | 5.0 | 0.0 | 0.00 | 0.00 | 0.00 | 44 | 1000.9 |
| 20260508174513 | 68 | 51 | 4.0 | 0.0 | 0.00 | 0.00 | 0.00 | 43 | 1000.9 |
| 20260508173011 | 68 | 19 | 3.0 | 0.0 | 0.00 | 0.00 | 0.00 | 45 | 1001.0 |
| 20260508171507 | 64 | 78 | 3.0 | 0.0 | 0.00 | 0.00 | 0.00 | 49 | 1002.0 |
| 20260508170011 | 61 | 113 | 5.0 | 0.0 | 0.00 | 0.00 | 0.00 | 52 | 1002.3 |
| 20260508164506 | 63 | 46 | 5.0 | 0.0 | 0.00 | 0.00 | 0.00 | 51 | 1001.5 |
| 20260508163001 | 60 | 127 | 4.0 | 0.0 | 0.00 | 0.00 | 0.00 | 57 | 1001.7 |
| 20260508161604 | 59 | 110 | 5.0 | 0.0 | 0.00 | 0.00 | 0.00 | 58 | 1002.6 |
| 20260508160058 | 58 | 101 | 6.0 | 0.0 | 0.00 | 0.00 | 0.00 | 57 | 1002.8 |
| 20260508154601 | 57 | 90 | 4.0 | 0.0 | 0.00 | 0.00 | 0.00 | 60 | 1002.8 |
| 20260508153055 | 57 | 119 | 5.0 | 0.0 | 0.00 | 0.00 | 0.00 | 60 | 1002.7 |
| 20260508151553 | 57 | 77 | 4.0 | 0.0 | 0.00 | 0.00 | 0.00 | 63 | 1003.0 |
| 20260508150051 | 56 | 141 | 4.0 | 0.0 | 0.00 | 0.00 | 0.00 | 65 | 1002.7 |
| 20260508144547 | 54 | 194 | 4.0 | 0.0 | 0.00 | 0.00 | 0.00 | 69 | 1002.9 |
| 20260508143048 | 53 | 133 | 4.0 | 0.0 | 0.00 | 0.00 | 0.00 | 73 | 1003.7 |
| 20260508141544 | 53 | 128 | 3.0 | 0.0 | 0.00 | 0.00 | 0.00 | 74 | 1003.7 |
| 20260508140042 | 52 | 142 | 2.0 | 0.0 | 0.00 | 0.00 | 0.00 | 76 | 1003.4 |
| 20260508134544 | 51 | 202 | 1.0 | 0.0 | 0.00 | 0.00 | 0.00 | 81 | 1003.9 |
| 20260508133043 | 49 | 254 | 0.0 | 0.0 | 0.00 | 0.00 | 0.00 | 88 | 1004.4 |
| 20260508131543 | 46 | 298 | 0.0 | 0.0 | 0.00 | 0.00 | 0.00 | 90 | 1004.9 |
| 20260508130039 | 45 | 204 | 0.0 | 0.0 | 0.00 | 0.00 | 0.00 | 91 | 1004.8 |
| 20260508124539 | 44 | 293 | 0.0 | 0.0 | 0.00 | 0.00 | 0.00 | 90 | 1005.0 |
| 20260508123038 | 44 | 298 | 1.0 | 0.0 | 0.00 | 0.00 | 0.00 | 91 | 1004.8 |
| 20260508121541 | 43 | 245 | 2.0 | 0.0 | 0.00 | 0.00 | 0.00 | 91 | 1004.2 |
| 20260508120041 | 43 | 223 | 1.0 | 0.0 | 0.00 | 0.00 | 0.00 | 90 | 1004.0 |
| 20260508114533 | 43 | 255 | 1.0 | 0.0 | 0.00 | 0.00 | 0.00 | 90 | 1003.7 |
| 20260508113039 | 43 | 306 | 0.0 | 0.0 | 0.00 | 0.00 | 0.00 | 89 | 1003.3 |
| 20260508111540 | 43 | 332 | 0.0 | 0.0 | 0.00 | 0.00 | 0.00 | 89 | 1003.2 |
| 20260508110030 | 43 | 25 | 0.0 | 0.0 | 0.00 | 0.00 | 0.00 | 89 | 1002.6 |
| 20260508104527 | 43 | 42 | 1.0 | 0.0 | 0.00 | 0.00 | 0.00 | 86 | 1002.1 |
| 20260508103026 | 45 | 202 | 0.0 | 0.0 | 0.00 | 0.00 | 0.00 | 85 | 1001.1 |
| 20260508101524 | 45 | 174 | 1.0 | 0.0 | 0.00 | 0.00 | 0.00 | 85 | 1000.9 |
| 20260508100022 | 46 | 196 | 1.0 | 0.0 | 0.00 | 0.00 | 0.00 | 85 | 1001.0 |
| 20260508094523 | 46 | 218 | 0.0 | 0.0 | 0.00 | 0.00 | 0.00 | 86 | 1001.0 |
| 20260508093023 | 46 | 223 | 0.0 | 0.0 | 0.00 | 0.00 | 0.00 | 85 | 1001.1 |
| 20260508091523 | 46 | 240 | 2.0 | 0.0 | 0.00 | 0.00 | 0.00 | 85 | 1001.3 |
| 20260508090020 | 45 | 219 | 1.0 | 0.0 | 0.00 | 0.00 | 0.00 | 84 | 1001.1 |
| 20260508084517 | 46 | 252 | 1.0 | 0.0 | 0.00 | 0.00 | 0.00 | 83 | 1001.1 |
| 20260508083014 | 47 | 256 | 0.0 | 0.0 | 0.00 | 0.00 | 0.00 | 83 | 1001.3 |
| 20260508081513 | 47 | 52 | 1.0 | 0.0 | 0.00 | 0.00 | 0.00 | 82 | 1001.2 |
| 20260508080010 | 47 | 329 | 0.0 | 0.0 | 0.00 | 0.00 | 0.00 | 80 | 1000.7 |
| 20260508074509 | 47 | 25 | 1.0 | 0.0 | 0.00 | 0.00 | 0.00 | 78 | 1000.8 |
| 20260508073009 | 49 | 281 | 0.0 | 0.0 | 0.00 | 0.00 | 0.00 | 74 | 1000.5 |
| 20260508071506 | 49 | 127 | 1.0 | 0.0 | 0.00 | 0.00 | 0.00 | 75 | 1000.5 |
| 20260508070002 | 49 | 209 | 1.0 | 0.0 | 0.00 | 0.00 | 0.00 | 73 | 1001.6 |
| 20260508064559 | 51 | 133 | 0.0 | 0.0 | 0.00 | 0.00 | 0.00 | 71 | 1001.4 |
| 20260508063103 | 51 | 135 | 0.0 | 0.0 | 0.00 | 0.00 | 0.00 | 70 | 1001.3 |
| 20260508061559 | 52 | 137 | 2.0 | 0.0 | 0.00 | 0.00 | 0.00 | 68 | 1000.8 |
| 20260508060053 | 52 | 13 | 2.0 | 0.0 | 0.00 | 0.00 | 0.00 | 67 | 1001.4 |
| 20260508054550 | 52 | 13 | 3.0 | 0.0 | 0.00 | 0.00 | 0.00 | 67 | 1001.9 |
| 20260508053059 | 52 | 250 | 2.0 | 0.0 | 0.00 | 0.00 | 0.00 | 65 | 1000.9 |
| 20260508051547 | 53 | 237 | 0.0 | 0.0 | 0.00 | 0.00 | 0.00 | 63 | 1000.7 |
| 20260508050042 | 54 | 79 | 1.0 | 0.0 | 0.00 | 0.00 | 0.00 | 61 | 1005.5 |
| 20260508044540 | 55 | 86 | 2.0 | 0.0 | 0.00 | 0.00 | 0.00 | 60 | 1005.5 |
| 20260508043046 | 55 | 39 | 4.0 | 0.0 | 0.00 | 0.00 | 0.00 | 59 | 1005.5 |
| 20260508041536 | 56 | 333 | 1.0 | 0.0 | 0.00 | 0.00 | 0.00 | 56 | 1005.6 |
| 20260508040036 | 56 | 48 | 0.0 | 0.0 | 0.00 | 0.00 | 0.00 | 56 | 1004.9 |
| 20260508034536 | 56 | 333 | 1.0 | 0.0 | 0.00 | 0.00 | 0.00 | 54 | 1004.5 |
| 20260508033031 | 57 | 300 | 2.0 | 0.0 | 0.00 | 0.00 | 0.00 | 53 | 1004.5 |
| 20260508031529 | 57 | 298 | 0.0 | 0.0 | 0.00 | 0.00 | 0.00 | 52 | 1004.5 |
| 20260508030027 | 58 | 312 | 2.0 | 0.0 | 0.00 | 0.00 | 0.00 | 51 | 1004.3 |
| 20260508024528 | 59 | 347 | 5.0 | 0.0 | 0.00 | 0.00 | 0.00 | 49 | 1004.5 |
| 20260508023022 | 59 | 309 | 7.0 | 0.0 | 0.00 | 0.00 | 0.00 | 47 | 1004.2 |
| 20260508021518 | 60 | 347 | 4.0 | 0.0 | 0.00 | 0.00 | 0.00 | 44 | 1003.9 |
| 20260508020020 | 62 | 329 | 1.0 | 0.0 | 0.00 | 0.00 | 0.00 | 43 | 1003.3 |
| 20260508014517 | 62 | 281 | 4.0 | 0.0 | 0.00 | 0.00 | 0.00 | 43 | 1002.8 |
| 20260508013016 | 64 | 167 | 1.0 | 0.0 | 0.00 | 0.00 | 0.00 | 40 | 1002.1 |
| 20260508011514 | 64 | 140 | 1.0 | 0.0 | 0.00 | 0.00 | 0.00 | 35 | 1001.8 |
| 20260508010015 | 64 | 164 | 3.0 | 0.0 | 0.00 | 0.00 | 0.00 | 36 | 1001.9 |
| 20260508004513 | 63 | 252 | 0.0 | 0.0 | 0.00 | 0.00 | 0.00 | 42 | 1001.9 |
| 20260508003014 | 63 | 117 | 2.0 | 0.0 | 0.00 | 0.00 | 0.00 | 39 | 1001.4 |
| 20260508001512 | 64 | 112 | 0.0 | 0.0 | 0.00 | 0.00 | 0.00 | 38 | 1001.8 |
| 20260508000012 | 64 | 107 | 1.0 | 0.0 | 0.00 | 0.00 | 0.00 | 39 | 1001.5 |
| 20260507234511 | 64 | 121 | 2.0 | 0.0 | 0.00 | 0.00 | 0.00 | 38 | 1001.2 |
| 20260507233012 | 65 | 148 | 2.0 | 0.0 | 0.00 | 0.00 | 0.00 | 37 | 1001.4 |
| 20260507231510 | 66 | 177 | 1.0 | 0.0 | 0.00 | 0.00 | 0.00 | 35 | 1001.2 |
| 20260507230010 | 67 | 156 | 0.0 | 0.0 | 0.00 | 0.00 | 0.00 | 32 | 1001.2 |